sensor_id;sensor_type;location;lat;lon;timestamp;P1;durP1;ratioP1;P2;durP2;ratioP2
10977;SDS011;5542;48.272;10.794;2022-08-11T00:01:36;1.90;;;1.80;;
10977;SDS011;5542;48.272;10.794;2022-08-11T00:04:10;1.80;;;1.70;;
10977;SDS011;5542;48.272;10.794;2022-08-11T00:06:38;1.77;;;1.67;;
10977;SDS011;5542;48.272;10.794;2022-08-11T00:09:07;1.37;;;1.30;;
10977;SDS011;5542;48.272;10.794;2022-08-11T00:11:37;1.52;;;1.42;;
10977;SDS011;5542;48.272;10.794;2022-08-11T00:14:14;2.10;;;1.90;;
10977;SDS011;5542;48.272;10.794;2022-08-11T00:16:52;1.80;;;1.70;;
10977;SDS011;5542;48.272;10.794;2022-08-11T00:19:21;1.70;;;1.60;;
10977;SDS011;5542;48.272;10.794;2022-08-11T00:21:50;1.63;;;1.55;;
10977;SDS011;5542;48.272;10.794;2022-08-11T00:24:19;1.63;;;1.52;;
10977;SDS011;5542;48.272;10.794;2022-08-11T00:26:48;1.08;;;1.08;;
10977;SDS011;5542;48.272;10.794;2022-08-11T00:29:16;1.20;;;1.20;;
10977;SDS011;5542;48.272;10.794;2022-08-11T00:31:43;1.27;;;1.25;;
10977;SDS011;5542;48.272;10.794;2022-08-11T00:34:14;1.35;;;1.35;;
10977;SDS011;5542;48.272;10.794;2022-08-11T00:36:46;1.60;;;1.50;;
10977;SDS011;5542;48.272;10.794;2022-08-11T00:39:16;1.70;;;1.60;;
10977;SDS011;5542;48.272;10.794;2022-08-11T00:41:55;1.63;;;1.58;;
10977;SDS011;5542;48.272;10.794;2022-08-11T00:44:33;1.67;;;1.58;;
10977;SDS011;5542;48.272;10.794;2022-08-11T00:47:13;1.40;;;1.40;;
10977;SDS011;5542;48.272;10.794;2022-08-11T00:49:51;1.67;;;1.58;;
10977;SDS011;5542;48.272;10.794;2022-08-11T00:52:32;1.77;;;1.67;;
10977;SDS011;5542;48.272;10.794;2022-08-11T00:55:30;1.27;;;1.27;;
10977;SDS011;5542;48.272;10.794;2022-08-11T01:01:47;1.70;;;1.60;;
10977;SDS011;5542;48.272;10.794;2022-08-11T01:04:57;1.80;;;1.70;;
10977;SDS011;5542;48.272;10.794;2022-08-11T01:10:51;1.33;;;1.23;;
10977;SDS011;5542;48.272;10.794;2022-08-11T01:13:36;1.20;;;1.20;;
10977;SDS011;5542;48.272;10.794;2022-08-11T01:16:44;1.70;;;1.60;;
10977;SDS011;5542;48.272;10.794;2022-08-11T01:25:56;1.67;;;1.57;;
10977;SDS011;5542;48.272;10.794;2022-08-11T01:28:52;1.70;;;1.60;;
10977;SDS011;5542;48.272;10.794;2022-08-11T01:35:08;1.30;;;1.30;;
10977;SDS011;5542;48.272;10.794;2022-08-11T01:38:02;1.90;;;1.80;;
10977;SDS011;5542;48.272;10.794;2022-08-11T01:41:21;1.55;;;1.48;;
10977;SDS011;5542;48.272;10.794;2022-08-11T01:44:20;1.88;;;1.77;;
10977;SDS011;5542;48.272;10.794;2022-08-11T01:47:11;2.05;;;1.95;;
10977;SDS011;5542;48.272;10.794;2022-08-11T01:50:04;1.90;;;1.80;;
10977;SDS011;5542;48.272;10.794;2022-08-11T01:52:40;1.98;;;1.88;;
10977;SDS011;5542;48.272;10.794;2022-08-11T01:55:20;1.80;;;1.70;;
10977;SDS011;5542;48.272;10.794;2022-08-11T01:57:55;2.75;;;2.55;;
10977;SDS011;5542;48.272;10.794;2022-08-11T02:00:30;2.60;;;2.07;;
10977;SDS011;5542;48.272;10.794;2022-08-11T02:03:14;1.90;;;1.80;;
10977;SDS011;5542;48.272;10.794;2022-08-11T02:05:54;2.05;;;1.80;;
10977;SDS011;5542;48.272;10.794;2022-08-11T02:08:34;1.70;;;1.60;;
10977;SDS011;5542;48.272;10.794;2022-08-11T02:11:14;1.90;;;1.80;;
10977;SDS011;5542;48.272;10.794;2022-08-11T02:13:57;1.90;;;1.80;;
10977;SDS011;5542;48.272;10.794;2022-08-11T02:16:33;1.80;;;1.70;;
10977;SDS011;5542;48.272;10.794;2022-08-11T02:19:17;2.03;;;1.92;;
10977;SDS011;5542;48.272;10.794;2022-08-11T02:22:15;2.95;;;2.67;;
10977;SDS011;5542;48.272;10.794;2022-08-11T02:25:06;2.05;;;1.95;;
10977;SDS011;5542;48.272;10.794;2022-08-11T02:27:35;2.92;;;2.72;;
10977;SDS011;5542;48.272;10.794;2022-08-11T02:30:07;2.20;;;2.10;;
10977;SDS011;5542;48.272;10.794;2022-08-11T02:32:36;2.95;;;2.75;;
10977;SDS011;5542;48.272;10.794;2022-08-11T02:35:34;2.47;;;2.33;;
10977;SDS011;5542;48.272;10.794;2022-08-11T02:38:25;2.30;;;2.10;;
10977;SDS011;5542;48.272;10.794;2022-08-11T02:40:59;2.65;;;2.47;;
10977;SDS011;5542;48.272;10.794;2022-08-11T02:43:56;2.28;;;2.17;;
10977;SDS011;5542;48.272;10.794;2022-08-11T02:46:36;2.22;;;2.13;;
10977;SDS011;5542;48.272;10.794;2022-08-11T02:49:17;2.30;;;2.20;;
10977;SDS011;5542;48.272;10.794;2022-08-11T02:52:17;2.35;;;2.25;;
10977;SDS011;5542;48.272;10.794;2022-08-11T02:54:52;3.10;;;2.90;;
10977;SDS011;5542;48.272;10.794;2022-08-11T02:57:28;2.97;;;2.78;;
10977;SDS011;5542;48.272;10.794;2022-08-11T03:00:05;2.50;;;2.40;;
10977;SDS011;5542;48.272;10.794;2022-08-11T03:02:46;2.53;;;2.33;;
10977;SDS011;5542;48.272;10.794;2022-08-11T03:05:23;2.50;;;2.30;;
10977;SDS011;5542;48.272;10.794;2022-08-11T03:08:03;2.72;;;2.53;;
10977;SDS011;5542;48.272;10.794;2022-08-11T03:10:42;2.20;;;2.10;;
10977;SDS011;5542;48.272;10.794;2022-08-11T03:13:33;2.15;;;2.05;;
10977;SDS011;5542;48.272;10.794;2022-08-11T03:16:20;2.03;;;1.93;;
10977;SDS011;5542;48.272;10.794;2022-08-11T03:19:10;2.40;;;2.30;;
10977;SDS011;5542;48.272;10.794;2022-08-11T03:21:45;2.30;;;2.10;;
10977;SDS011;5542;48.272;10.794;2022-08-11T03:24:20;2.57;;;2.40;;
10977;SDS011;5542;48.272;10.794;2022-08-11T03:27:00;2.28;;;2.08;;
10977;SDS011;5542;48.272;10.794;2022-08-11T03:29:34;2.10;;;2.00;;
10977;SDS011;5542;48.272;10.794;2022-08-11T03:32:06;1.90;;;1.80;;
10977;SDS011;5542;48.272;10.794;2022-08-11T03:34:45;1.80;;;1.70;;
10977;SDS011;5542;48.272;10.794;2022-08-11T03:37:18;1.90;;;1.80;;
10977;SDS011;5542;48.272;10.794;2022-08-11T03:40:22;2.10;;;2.00;;
10977;SDS011;5542;48.272;10.794;2022-08-11T03:43:20;1.90;;;1.80;;
10977;SDS011;5542;48.272;10.794;2022-08-11T03:46:00;1.77;;;1.67;;
10977;SDS011;5542;48.272;10.794;2022-08-11T03:48:36;1.90;;;1.80;;
10977;SDS011;5542;48.272;10.794;2022-08-11T03:51:13;1.90;;;1.80;;
10977;SDS011;5542;48.272;10.794;2022-08-11T03:53:48;1.90;;;1.80;;
10977;SDS011;5542;48.272;10.794;2022-08-11T03:56:43;1.88;;;1.77;;
10977;SDS011;5542;48.272;10.794;2022-08-11T04:02:58;2.30;;;2.10;;
10977;SDS011;5542;48.272;10.794;2022-08-11T04:05:48;1.92;;;1.83;;
10977;SDS011;5542;48.272;10.794;2022-08-11T04:09:09;1.67;;;1.58;;
10977;SDS011;5542;48.272;10.794;2022-08-11T04:12:13;2.00;;;1.90;;
10977;SDS011;5542;48.272;10.794;2022-08-11T04:15:03;1.70;;;1.60;;
10977;SDS011;5542;48.272;10.794;2022-08-11T04:24:04;1.83;;;1.73;;
10977;SDS011;5542;48.272;10.794;2022-08-11T04:30:03;2.10;;;2.00;;
10977;SDS011;5542;48.272;10.794;2022-08-11T04:32:48;1.92;;;1.83;;
10977;SDS011;5542;48.272;10.794;2022-08-11T04:35:41;1.88;;;1.77;;
10977;SDS011;5542;48.272;10.794;2022-08-11T04:41:50;1.85;;;1.75;;
10977;SDS011;5542;48.272;10.794;2022-08-11T04:48:05;2.85;;;2.65;;
10977;SDS011;5542;48.272;10.794;2022-08-11T04:51:24;3.13;;;2.92;;
10977;SDS011;5542;48.272;10.794;2022-08-11T04:54:28;2.40;;;2.30;;
10977;SDS011;5542;48.272;10.794;2022-08-11T04:57:27;2.25;;;2.15;;
10977;SDS011;5542;48.272;10.794;2022-08-11T05:00:23;2.53;;;2.33;;
10977;SDS011;5542;48.272;10.794;2022-08-11T05:09:39;3.10;;;2.90;;
10977;SDS011;5542;48.272;10.794;2022-08-11T05:12:25;3.22;;;3.03;;
10977;SDS011;5542;48.272;10.794;2022-08-11T05:14:56;3.53;;;3.22;;
10977;SDS011;5542;48.272;10.794;2022-08-11T05:17:43;3.20;;;3.00;;
10977;SDS011;5542;48.272;10.794;2022-08-11T05:20:38;3.45;;;3.15;;
10977;SDS011;5542;48.272;10.794;2022-08-11T05:23:28;3.22;;;2.97;;
10977;SDS011;5542;48.272;10.794;2022-08-11T05:26:21;3.33;;;3.03;;
10977;SDS011;5542;48.272;10.794;2022-08-11T05:29:23;3.10;;;2.90;;
10977;SDS011;5542;48.272;10.794;2022-08-11T05:32:11;3.35;;;3.08;;
10977;SDS011;5542;48.272;10.794;2022-08-11T05:35:00;3.80;;;3.50;;
10977;SDS011;5542;48.272;10.794;2022-08-11T05:37:31;4.70;;;3.50;;
10977;SDS011;5542;48.272;10.794;2022-08-11T05:40:04;3.33;;;3.13;;
10977;SDS011;5542;48.272;10.794;2022-08-11T05:42:54;3.58;;;3.28;;
10977;SDS011;5542;48.272;10.794;2022-08-11T05:45:40;4.05;;;3.42;;
10977;SDS011;5542;48.272;10.794;2022-08-11T05:48:30;4.03;;;3.60;;
10977;SDS011;5542;48.272;10.794;2022-08-11T05:51:16;3.05;;;2.85;;
10977;SDS011;5542;48.272;10.794;2022-08-11T05:54:03;4.03;;;3.47;;
10977;SDS011;5542;48.272;10.794;2022-08-11T05:56:52;3.60;;;3.30;;
10977;SDS011;5542;48.272;10.794;2022-08-11T05:59:23;3.40;;;3.20;;
10977;SDS011;5542;48.272;10.794;2022-08-11T06:01:52;3.47;;;3.28;;
10977;SDS011;5542;48.272;10.794;2022-08-11T06:04:25;3.10;;;2.90;;
10977;SDS011;5542;48.272;10.794;2022-08-11T06:06:54;3.72;;;3.22;;
10977;SDS011;5542;48.272;10.794;2022-08-11T06:09:31;3.40;;;3.17;;
10977;SDS011;5542;48.272;10.794;2022-08-11T06:12:01;3.38;;;3.08;;
10977;SDS011;5542;48.272;10.794;2022-08-11T06:14:31;3.15;;;2.95;;
10977;SDS011;5542;48.272;10.794;2022-08-11T06:16:59;3.22;;;3.03;;
10977;SDS011;5542;48.272;10.794;2022-08-11T06:19:34;3.65;;;3.35;;
10977;SDS011;5542;48.272;10.794;2022-08-11T06:22:03;3.45;;;3.20;;
10977;SDS011;5542;48.272;10.794;2022-08-11T06:24:32;3.40;;;3.10;;
10977;SDS011;5542;48.272;10.794;2022-08-11T06:27:01;3.53;;;3.22;;
10977;SDS011;5542;48.272;10.794;2022-08-11T06:29:32;3.33;;;3.13;;
10977;SDS011;5542;48.272;10.794;2022-08-11T06:32:05;3.10;;;2.90;;
10977;SDS011;5542;48.272;10.794;2022-08-11T06:34:39;2.83;;;2.63;;
10977;SDS011;5542;48.272;10.794;2022-08-11T06:37:21;3.20;;;2.92;;
10977;SDS011;5542;48.272;10.794;2022-08-11T06:39:55;3.20;;;2.80;;
10977;SDS011;5542;48.272;10.794;2022-08-11T06:42:33;3.15;;;2.92;;
10977;SDS011;5542;48.272;10.794;2022-08-11T06:45:13;3.92;;;3.10;;
10977;SDS011;5542;48.272;10.794;2022-08-11T06:47:49;3.08;;;2.83;;
10977;SDS011;5542;48.272;10.794;2022-08-11T06:50:17;3.60;;;3.30;;
10977;SDS011;5542;48.272;10.794;2022-08-11T06:53:04;4.70;;;2.80;;
10977;SDS011;5542;48.272;10.794;2022-08-11T06:55:34;3.30;;;3.00;;
10977;SDS011;5542;48.272;10.794;2022-08-11T06:58:20;3.30;;;3.00;;
10977;SDS011;5542;48.272;10.794;2022-08-11T07:01:07;3.10;;;2.90;;
10977;SDS011;5542;48.272;10.794;2022-08-11T07:03:38;3.10;;;2.80;;
10977;SDS011;5542;48.272;10.794;2022-08-11T07:06:17;3.05;;;2.83;;
10977;SDS011;5542;48.272;10.794;2022-08-11T07:09:05;2.90;;;2.70;;
10977;SDS011;5542;48.272;10.794;2022-08-11T07:15:34;3.00;;;2.80;;
10977;SDS011;5542;48.272;10.794;2022-08-11T07:18:09;2.92;;;2.72;;
10977;SDS011;5542;48.272;10.794;2022-08-11T07:21:04;3.05;;;2.75;;
10977;SDS011;5542;48.272;10.794;2022-08-11T07:23:51;3.13;;;2.92;;
10977;SDS011;5542;48.272;10.794;2022-08-11T07:26:37;3.15;;;2.92;;
10977;SDS011;5542;48.272;10.794;2022-08-11T07:29:23;3.00;;;2.80;;
10977;SDS011;5542;48.272;10.794;2022-08-11T07:31:54;3.65;;;3.13;;
10977;SDS011;5542;48.272;10.794;2022-08-11T07:34:30;2.93;;;2.73;;
10977;SDS011;5542;48.272;10.794;2022-08-11T07:37:00;3.30;;;3.00;;
10977;SDS011;5542;48.272;10.794;2022-08-11T07:39:35;2.85;;;2.65;;
10977;SDS011;5542;48.272;10.794;2022-08-11T07:42:04;3.53;;;2.92;;
10977;SDS011;5542;48.272;10.794;2022-08-11T07:44:32;3.10;;;2.90;;
10977;SDS011;5542;48.272;10.794;2022-08-11T07:47:20;3.50;;;2.90;;
10977;SDS011;5542;48.272;10.794;2022-08-11T07:50:07;2.88;;;2.67;;
10977;SDS011;5542;48.272;10.794;2022-08-11T07:52:52;3.42;;;2.75;;
10977;SDS011;5542;48.272;10.794;2022-08-11T07:55:20;2.65;;;2.45;;
10977;SDS011;5542;48.272;10.794;2022-08-11T07:57:50;3.58;;;2.70;;
10977;SDS011;5542;48.272;10.794;2022-08-11T08:00:35;3.00;;;2.80;;
10977;SDS011;5542;48.272;10.794;2022-08-11T08:03:22;2.92;;;2.72;;
10977;SDS011;5542;48.272;10.794;2022-08-11T08:06:08;3.15;;;2.90;;
10977;SDS011;5542;48.272;10.794;2022-08-11T08:08:52;3.22;;;2.72;;
10977;SDS011;5542;48.272;10.794;2022-08-11T08:11:38;3.35;;;3.05;;
10977;SDS011;5542;48.272;10.794;2022-08-11T08:14:22;2.95;;;2.70;;
10977;SDS011;5542;48.272;10.794;2022-08-11T08:17:07;2.95;;;2.75;;
10977;SDS011;5542;48.272;10.794;2022-08-11T08:19:52;2.95;;;2.75;;
10977;SDS011;5542;48.272;10.794;2022-08-11T08:22:21;3.25;;;2.80;;
10977;SDS011;5542;48.272;10.794;2022-08-11T08:24:48;3.05;;;2.78;;
10977;SDS011;5542;48.272;10.794;2022-08-11T08:27:15;3.10;;;2.90;;
10977;SDS011;5542;48.272;10.794;2022-08-11T08:29:43;3.45;;;2.83;;
10977;SDS011;5542;48.272;10.794;2022-08-11T08:32:28;3.17;;;2.97;;
10977;SDS011;5542;48.272;10.794;2022-08-11T08:34:56;3.10;;;2.90;;
10977;SDS011;5542;48.272;10.794;2022-08-11T08:37:25;3.13;;;2.92;;
10977;SDS011;5542;48.272;10.794;2022-08-11T08:39:52;3.58;;;2.70;;
10977;SDS011;5542;48.272;10.794;2022-08-11T08:42:22;3.15;;;2.85;;
10977;SDS011;5542;48.272;10.794;2022-08-11T08:44:52;2.83;;;2.63;;
10977;SDS011;5542;48.272;10.794;2022-08-11T08:47:27;2.97;;;2.78;;
10977;SDS011;5542;48.272;10.794;2022-08-11T08:49:57;2.80;;;2.60;;
10977;SDS011;5542;48.272;10.794;2022-08-11T08:52:28;3.60;;;2.80;;
10977;SDS011;5542;48.272;10.794;2022-08-11T08:55:00;2.83;;;2.60;;
10977;SDS011;5542;48.272;10.794;2022-08-11T08:57:29;2.70;;;2.50;;
10977;SDS011;5542;48.272;10.794;2022-08-11T08:59:58;2.63;;;2.42;;
10977;SDS011;5542;48.272;10.794;2022-08-11T09:02:27;3.08;;;2.28;;
10977;SDS011;5542;48.272;10.794;2022-08-11T09:04:54;2.90;;;2.70;;
10977;SDS011;5542;48.272;10.794;2022-08-11T09:07:21;3.08;;;2.78;;
10977;SDS011;5542;48.272;10.794;2022-08-11T09:09:52;2.88;;;2.58;;
10977;SDS011;5542;48.272;10.794;2022-08-11T09:12:25;3.58;;;2.65;;
10977;SDS011;5542;48.272;10.794;2022-08-11T09:14:53;3.00;;;2.80;;
10977;SDS011;5542;48.272;10.794;2022-08-11T09:17:28;5.80;;;2.60;;
10977;SDS011;5542;48.272;10.794;2022-08-11T09:19:57;2.83;;;2.63;;
10977;SDS011;5542;48.272;10.794;2022-08-11T09:22:26;2.75;;;2.55;;
10977;SDS011;5542;48.272;10.794;2022-08-11T09:25:12;2.97;;;2.77;;
10977;SDS011;5542;48.272;10.794;2022-08-11T09:27:58;2.60;;;2.40;;
10977;SDS011;5542;48.272;10.794;2022-08-11T09:30:25;2.80;;;2.60;;
10977;SDS011;5542;48.272;10.794;2022-08-11T09:32:53;2.72;;;2.50;;
10977;SDS011;5542;48.272;10.794;2022-08-11T09:35:24;2.63;;;2.42;;
10977;SDS011;5542;48.272;10.794;2022-08-11T09:37:52;2.83;;;2.63;;
10977;SDS011;5542;48.272;10.794;2022-08-11T09:40:40;3.35;;;2.50;;
10977;SDS011;5542;48.272;10.794;2022-08-11T09:43:10;2.80;;;2.60;;
10977;SDS011;5542;48.272;10.794;2022-08-11T09:45:56;2.83;;;2.60;;
10977;SDS011;5542;48.272;10.794;2022-08-11T09:48:25;3.33;;;2.70;;
10977;SDS011;5542;48.272;10.794;2022-08-11T09:50:56;2.70;;;2.50;;
10977;SDS011;5542;48.272;10.794;2022-08-11T09:53:25;3.05;;;2.67;;
10977;SDS011;5542;48.272;10.794;2022-08-11T09:55:57;2.85;;;2.65;;
10977;SDS011;5542;48.272;10.794;2022-08-11T09:58:45;2.85;;;2.65;;
10977;SDS011;5542;48.272;10.794;2022-08-11T10:01:10;3.30;;;2.60;;
10977;SDS011;5542;48.272;10.794;2022-08-11T10:03:50;2.85;;;2.65;;
10977;SDS011;5542;48.272;10.794;2022-08-11T10:06:21;2.53;;;2.40;;
10977;SDS011;5542;48.272;10.794;2022-08-11T10:09:07;2.60;;;2.40;;
10977;SDS011;5542;48.272;10.794;2022-08-11T10:11:36;2.63;;;2.50;;
10977;SDS011;5542;48.272;10.794;2022-08-11T10:14:04;3.03;;;2.67;;
10977;SDS011;5542;48.272;10.794;2022-08-11T10:16:50;2.60;;;2.40;;
10977;SDS011;5542;48.272;10.794;2022-08-11T10:19:18;2.90;;;2.40;;
10977;SDS011;5542;48.272;10.794;2022-08-11T10:21:47;2.70;;;2.50;;
10977;SDS011;5542;48.272;10.794;2022-08-11T10:24:37;2.47;;;2.28;;
10977;SDS011;5542;48.272;10.794;2022-08-11T10:27:25;2.42;;;2.33;;
10977;SDS011;5542;48.272;10.794;2022-08-11T10:29:52;3.10;;;2.17;;
10977;SDS011;5542;48.272;10.794;2022-08-11T10:32:37;2.75;;;2.40;;
10977;SDS011;5542;48.272;10.794;2022-08-11T10:35:23;2.47;;;2.27;;
10977;SDS011;5542;48.272;10.794;2022-08-11T10:37:51;2.63;;;2.42;;
10977;SDS011;5542;48.272;10.794;2022-08-11T10:40:19;2.97;;;2.20;;
10977;SDS011;5542;48.272;10.794;2022-08-11T10:42:50;3.33;;;2.55;;
10977;SDS011;5542;48.272;10.794;2022-08-11T10:45:31;3.30;;;2.70;;
10977;SDS011;5542;48.272;10.794;2022-08-11T10:48:17;2.80;;;2.60;;
10977;SDS011;5542;48.272;10.794;2022-08-11T10:50:46;2.65;;;2.45;;
10977;SDS011;5542;48.272;10.794;2022-08-11T10:53:32;2.40;;;2.20;;
10977;SDS011;5542;48.272;10.794;2022-08-11T10:56:16;2.92;;;2.55;;
10977;SDS011;5542;48.272;10.794;2022-08-11T10:59:04;2.70;;;2.45;;
10977;SDS011;5542;48.272;10.794;2022-08-11T11:01:35;2.30;;;2.20;;
10977;SDS011;5542;48.272;10.794;2022-08-11T11:04:05;2.40;;;2.30;;
10977;SDS011;5542;48.272;10.794;2022-08-11T11:06:37;3.95;;;2.65;;
10977;SDS011;5542;48.272;10.794;2022-08-11T11:09:12;2.42;;;2.30;;
10977;SDS011;5542;48.272;10.794;2022-08-11T11:11:42;2.40;;;2.30;;
10977;SDS011;5542;48.272;10.794;2022-08-11T11:14:31;2.55;;;2.40;;
10977;SDS011;5542;48.272;10.794;2022-08-11T11:17:20;2.50;;;2.40;;
10977;SDS011;5542;48.272;10.794;2022-08-11T11:20:09;2.53;;;2.42;;
10977;SDS011;5542;48.272;10.794;2022-08-11T11:22:41;2.47;;;2.28;;
10977;SDS011;5542;48.272;10.794;2022-08-11T11:25:19;3.17;;;2.40;;
10977;SDS011;5542;48.272;10.794;2022-08-11T11:30:41;2.58;;;2.42;;
10977;SDS011;5542;48.272;10.794;2022-08-11T11:33:17;2.50;;;2.30;;
10977;SDS011;5542;48.272;10.794;2022-08-11T11:35:53;2.70;;;2.50;;
10977;SDS011;5542;48.272;10.794;2022-08-11T11:38:33;2.70;;;2.40;;
10977;SDS011;5542;48.272;10.794;2022-08-11T11:41:00;2.50;;;2.30;;
10977;SDS011;5542;48.272;10.794;2022-08-11T11:43:44;2.50;;;2.40;;
10977;SDS011;5542;48.272;10.794;2022-08-11T11:46:13;2.45;;;2.25;;
10977;SDS011;5542;48.272;10.794;2022-08-11T11:48:40;2.67;;;2.47;;
10977;SDS011;5542;48.272;10.794;2022-08-11T11:51:07;2.42;;;2.33;;
10977;SDS011;5542;48.272;10.794;2022-08-11T11:53:38;2.67;;;2.30;;
10977;SDS011;5542;48.272;10.794;2022-08-11T11:56:07;2.50;;;2.30;;
10977;SDS011;5542;48.272;10.794;2022-08-11T11:58:35;2.50;;;2.40;;
10977;SDS011;5542;48.272;10.794;2022-08-11T12:01:22;4.10;;;2.40;;
10977;SDS011;5542;48.272;10.794;2022-08-11T12:03:51;3.47;;;2.60;;
10977;SDS011;5542;48.272;10.794;2022-08-11T12:06:21;2.60;;;2.40;;
10977;SDS011;5542;48.272;10.794;2022-08-11T12:08:50;2.60;;;2.40;;
10977;SDS011;5542;48.272;10.794;2022-08-11T12:11:20;2.45;;;2.30;;
10977;SDS011;5542;48.272;10.794;2022-08-11T12:14:07;2.35;;;2.15;;
10977;SDS011;5542;48.272;10.794;2022-08-11T12:16:37;2.63;;;2.42;;
10977;SDS011;5542;48.272;10.794;2022-08-11T12:19:06;2.65;;;2.45;;
10977;SDS011;5542;48.272;10.794;2022-08-11T12:21:35;2.78;;;2.58;;
10977;SDS011;5542;48.272;10.794;2022-08-11T12:24:23;2.40;;;2.20;;
10977;SDS011;5542;48.272;10.794;2022-08-11T12:27:07;3.30;;;2.33;;
10977;SDS011;5542;48.272;10.794;2022-08-11T12:29:47;2.47;;;2.35;;
10977;SDS011;5542;48.272;10.794;2022-08-11T12:32:16;2.97;;;2.40;;
10977;SDS011;5542;48.272;10.794;2022-08-11T12:34:44;2.43;;;2.33;;
10977;SDS011;5542;48.272;10.794;2022-08-11T12:37:11;3.00;;;2.58;;
10977;SDS011;5542;48.272;10.794;2022-08-11T12:39:42;2.38;;;2.22;;
10977;SDS011;5542;48.272;10.794;2022-08-11T12:42:28;2.25;;;2.05;;
10977;SDS011;5542;48.272;10.794;2022-08-11T12:45:15;2.40;;;2.30;;
10977;SDS011;5542;48.272;10.794;2022-08-11T12:47:56;2.38;;;2.25;;
10977;SDS011;5542;48.272;10.794;2022-08-11T12:50:46;2.20;;;2.10;;
10977;SDS011;5542;48.272;10.794;2022-08-11T12:53:34;2.35;;;2.25;;
10977;SDS011;5542;48.272;10.794;2022-08-11T12:56:07;2.45;;;2.20;;
10977;SDS011;5542;48.272;10.794;2022-08-11T12:58:53;2.78;;;2.60;;
10977;SDS011;5542;48.272;10.794;2022-08-11T13:01:38;2.80;;;2.33;;
10977;SDS011;5542;48.272;10.794;2022-08-11T13:04:24;2.47;;;2.37;;
10977;SDS011;5542;48.272;10.794;2022-08-11T13:07:10;2.38;;;2.20;;
10977;SDS011;5542;48.272;10.794;2022-08-11T13:09:38;2.55;;;2.35;;
10977;SDS011;5542;48.272;10.794;2022-08-11T13:12:06;3.53;;;2.35;;
10977;SDS011;5542;48.272;10.794;2022-08-11T13:14:50;2.38;;;2.28;;
10977;SDS011;5542;48.272;10.794;2022-08-11T13:17:18;2.40;;;2.20;;
10977;SDS011;5542;48.272;10.794;2022-08-11T13:19:49;3.33;;;2.22;;
10977;SDS011;5542;48.272;10.794;2022-08-11T13:22:17;2.30;;;2.20;;
10977;SDS011;5542;48.272;10.794;2022-08-11T13:24:47;3.42;;;2.40;;
10977;SDS011;5542;48.272;10.794;2022-08-11T13:27:17;2.80;;;2.50;;
10977;SDS011;5542;48.272;10.794;2022-08-11T13:29:44;2.30;;;2.20;;
10977;SDS011;5542;48.272;10.794;2022-08-11T13:32:12;2.40;;;2.20;;
10977;SDS011;5542;48.272;10.794;2022-08-11T13:34:40;2.60;;;2.40;;
10977;SDS011;5542;48.272;10.794;2022-08-11T13:37:09;2.42;;;2.22;;
10977;SDS011;5542;48.272;10.794;2022-08-11T13:39:39;2.35;;;2.15;;
10977;SDS011;5542;48.272;10.794;2022-08-11T13:42:11;2.20;;;2.10;;
10977;SDS011;5542;48.272;10.794;2022-08-11T13:44:40;2.10;;;2.00;;
10977;SDS011;5542;48.272;10.794;2022-08-11T13:47:07;2.30;;;2.20;;
10977;SDS011;5542;48.272;10.794;2022-08-11T13:49:39;2.20;;;2.10;;
10977;SDS011;5542;48.272;10.794;2022-08-11T13:52:10;2.03;;;1.92;;
10977;SDS011;5542;48.272;10.794;2022-08-11T13:54:38;2.58;;;2.38;;
10977;SDS011;5542;48.272;10.794;2022-08-11T13:57:07;2.03;;;1.92;;
10977;SDS011;5542;48.272;10.794;2022-08-11T13:59:36;2.40;;;2.30;;
10977;SDS011;5542;48.272;10.794;2022-08-11T14:02:05;2.10;;;2.00;;
10977;SDS011;5542;48.272;10.794;2022-08-11T14:04:38;2.47;;;2.28;;
10977;SDS011;5542;48.272;10.794;2022-08-11T14:07:08;2.40;;;2.20;;
10977;SDS011;5542;48.272;10.794;2022-08-11T14:09:40;2.50;;;2.30;;
10977;SDS011;5542;48.272;10.794;2022-08-11T14:12:12;2.25;;;2.15;;
10977;SDS011;5542;48.272;10.794;2022-08-11T14:15:00;2.00;;;1.75;;
10977;SDS011;5542;48.272;10.794;2022-08-11T14:17:31;2.20;;;2.10;;
10977;SDS011;5542;48.272;10.794;2022-08-11T14:20:00;2.22;;;2.08;;
10977;SDS011;5542;48.272;10.794;2022-08-11T14:22:31;2.13;;;2.03;;
10977;SDS011;5542;48.272;10.794;2022-08-11T14:24:59;2.20;;;2.10;;
10977;SDS011;5542;48.272;10.794;2022-08-11T14:27:26;2.50;;;2.10;;
10977;SDS011;5542;48.272;10.794;2022-08-11T14:29:55;2.40;;;2.30;;
10977;SDS011;5542;48.272;10.794;2022-08-11T14:32:23;1.90;;;1.80;;
10977;SDS011;5542;48.272;10.794;2022-08-11T14:34:50;2.10;;;2.00;;
10977;SDS011;5542;48.272;10.794;2022-08-11T14:37:19;2.10;;;2.00;;
10977;SDS011;5542;48.272;10.794;2022-08-11T14:39:50;2.28;;;2.17;;
10977;SDS011;5542;48.272;10.794;2022-08-11T14:42:19;2.20;;;2.10;;
10977;SDS011;5542;48.272;10.794;2022-08-11T14:45:05;2.20;;;2.10;;
10977;SDS011;5542;48.272;10.794;2022-08-11T14:47:54;2.15;;;1.95;;
10977;SDS011;5542;48.272;10.794;2022-08-11T14:50:27;2.10;;;2.00;;
10977;SDS011;5542;48.272;10.794;2022-08-11T14:52:55;2.10;;;2.00;;
10977;SDS011;5542;48.272;10.794;2022-08-11T14:55:26;2.28;;;2.15;;
10977;SDS011;5542;48.272;10.794;2022-08-11T14:58:14;2.30;;;2.17;;
10977;SDS011;5542;48.272;10.794;2022-08-11T15:00:43;2.28;;;2.17;;
10977;SDS011;5542;48.272;10.794;2022-08-11T15:03:10;2.10;;;2.00;;
10977;SDS011;5542;48.272;10.794;2022-08-11T15:05:45;2.05;;;1.95;;
10977;SDS011;5542;48.272;10.794;2022-08-11T15:08:13;2.30;;;2.10;;
10977;SDS011;5542;48.272;10.794;2022-08-11T15:10:43;2.40;;;2.30;;
10977;SDS011;5542;48.272;10.794;2022-08-11T15:13:10;2.33;;;2.20;;
10977;SDS011;5542;48.272;10.794;2022-08-11T15:15:42;2.33;;;2.13;;
10977;SDS011;5542;48.272;10.794;2022-08-11T15:18:27;2.25;;;2.15;;
10977;SDS011;5542;48.272;10.794;2022-08-11T15:20:56;2.40;;;2.20;;
10977;SDS011;5542;48.272;10.794;2022-08-11T15:23:40;2.23;;;2.13;;
10977;SDS011;5542;48.272;10.794;2022-08-11T15:26:27;2.65;;;2.10;;
10977;SDS011;5542;48.272;10.794;2022-08-11T15:29:16;2.30;;;2.20;;
10977;SDS011;5542;48.272;10.794;2022-08-11T15:32:05;2.05;;;1.85;;
10977;SDS011;5542;48.272;10.794;2022-08-11T15:34:53;2.23;;;2.13;;
10977;SDS011;5542;48.272;10.794;2022-08-11T15:37:41;2.33;;;2.13;;
10977;SDS011;5542;48.272;10.794;2022-08-11T15:40:10;2.30;;;2.20;;
10977;SDS011;5542;48.272;10.794;2022-08-11T15:43:03;2.23;;;2.13;;
10977;SDS011;5542;48.272;10.794;2022-08-11T15:45:53;2.30;;;2.15;;
10977;SDS011;5542;48.272;10.794;2022-08-11T15:48:28;2.17;;;2.08;;
10977;SDS011;5542;48.272;10.794;2022-08-11T15:51:13;2.00;;;1.90;;
10977;SDS011;5542;48.272;10.794;2022-08-11T15:53:47;2.15;;;2.05;;
10977;SDS011;5542;48.272;10.794;2022-08-11T15:56:17;2.10;;;2.00;;
10977;SDS011;5542;48.272;10.794;2022-08-11T15:58:48;2.85;;;1.92;;
10977;SDS011;5542;48.272;10.794;2022-08-11T16:01:35;2.00;;;1.90;;
10977;SDS011;5542;48.272;10.794;2022-08-11T16:04:23;2.27;;;2.07;;
10977;SDS011;5542;48.272;10.794;2022-08-11T16:06:52;2.07;;;1.97;;
10977;SDS011;5542;48.272;10.794;2022-08-11T16:09:22;1.95;;;1.85;;
10977;SDS011;5542;48.272;10.794;2022-08-11T16:11:52;1.98;;;1.88;;
10977;SDS011;5542;48.272;10.794;2022-08-11T16:14:23;1.80;;;1.70;;
10977;SDS011;5542;48.272;10.794;2022-08-11T16:17:09;2.60;;;2.40;;
10977;SDS011;5542;48.272;10.794;2022-08-11T16:19:39;2.72;;;2.40;;
10977;SDS011;5542;48.272;10.794;2022-08-11T16:22:08;2.00;;;1.90;;
10977;SDS011;5542;48.272;10.794;2022-08-11T16:24:38;2.45;;;2.25;;
10977;SDS011;5542;48.272;10.794;2022-08-11T16:27:09;2.08;;;1.98;;
10977;SDS011;5542;48.272;10.794;2022-08-11T16:29:40;2.30;;;2.20;;
10977;SDS011;5542;48.272;10.794;2022-08-11T16:32:10;2.03;;;1.92;;
10977;SDS011;5542;48.272;10.794;2022-08-11T16:34:47;3.38;;;2.10;;
10977;SDS011;5542;48.272;10.794;2022-08-11T16:37:35;2.10;;;2.00;;
10977;SDS011;5542;48.272;10.794;2022-08-11T16:40:20;2.30;;;2.10;;
10977;SDS011;5542;48.272;10.794;2022-08-11T16:42:49;2.10;;;2.00;;